Time;durP1;ratioP1;P1;durP2;ratioP2;P2;SDS_P1;SDS_P2;PMS_P1;PMS_P2;Temp;Humidity;BMP_temperature;BMP_pressure;BME280_temperature;BME280_humidity;BME280_pressure;Samples;Min_cycle;Max_cycle;Signal;HPM_P1;HPM_P2
2023/05/28 00:04:33;;;;;;;12.52;4.30;;;;;;;19.68;38.00;101939.53;16119398;19;130860;-49
2023/05/28 00:09:55;;;;;;;9.23;3.95;;;;;;;19.67;38.48;101940.59;16117911;19;130689;-51
2023/05/28 00:15:17;;;;;;;9.82;4.47;;;;;;;19.66;38.29;101941.69;16113380;19;131759;-50
2023/05/28 00:20:40;;;;;;;8.88;3.65;;;;;;;19.66;38.65;101927.78;16116569;19;131303;-50
2023/05/28 00:26:02;;;;;;;8.23;3.78;;;;;;;19.65;38.02;101915.00;16117937;19;129743;-47
2023/05/28 00:31:24;;;;;;;8.38;3.80;;;;;;;19.64;38.08;101906.88;16121439;19;129398;-47
2023/05/28 00:36:46;;;;;;;8.10;4.22;;;;;;;19.64;38.33;101909.66;16120256;19;129764;-45
2023/05/28 00:42:10;;;;;;;6.05;3.40;;;;;;;19.63;38.15;101916.31;16114938;19;130069;-45
2023/05/28 00:47:32;;;;;;;6.45;3.63;;;;;;;19.62;38.12;101921.00;16115583;19;132663;-48
2023/05/28 00:52:55;;;;;;;9.93;4.03;;;;;;;19.62;38.19;101920.16;16117039;19;130057;-49
2023/05/28 00:58:19;;;;;;;9.52;3.92;;;;;;;19.61;38.20;101919.28;16106114;19;131022;-45
2023/05/28 01:03:41;;;;;;;11.60;4.13;;;;;;;19.58;38.19;101918.91;16115833;19;130352;-44
2023/05/28 01:09:04;;;;;;;10.98;3.90;;;;;;;19.56;37.99;101921.94;16110519;19;130141;-45
2023/05/28 01:14:26;;;;;;;7.82;3.67;;;;;;;19.55;38.36;101917.44;16114074;19;129847;-45
2023/05/28 01:19:48;;;;;;;10.90;4.55;;;;;;;19.54;38.51;101918.53;16111508;19;130268;-46
2023/05/28 01:25:11;;;;;;;8.40;4.13;;;;;;;19.54;38.50;101907.41;16107451;19;130355;-47
2023/05/28 01:30:34;;;;;;;10.23;4.47;;;;;;;19.53;38.21;101911.28;16110519;19;129401;-44
2023/05/28 01:35:58;;;;;;;9.25;4.60;;;;;;;19.53;38.45;101908.50;16115845;19;131135;-45
2023/05/28 01:41:21;;;;;;;7.65;4.00;;;;;;;19.50;38.53;101911.72;16112876;19;129578;-46
2023/05/28 01:46:45;;;;;;;9.50;4.40;;;;;;;19.50;38.31;101904.25;16110109;19;129506;-46
2023/05/28 01:52:07;;;;;;;9.70;4.35;;;;;;;19.49;38.36;101912.78;16113156;19;130156;-45
2023/05/28 01:57:29;;;;;;;10.85;5.00;;;;;;;19.47;38.40;101914.94;16110843;19;131755;-45
2023/05/28 02:02:52;;;;;;;10.10;4.55;;;;;;;19.47;38.48;101920.50;16109692;19;133180;-46
2023/05/28 02:08:14;;;;;;;11.65;4.53;;;;;;;19.46;38.19;101916.03;16106278;19;130187;-48
2023/05/28 02:13:36;;;;;;;9.57;4.70;;;;;;;19.44;38.33;101912.66;16113072;19;130143;-45
2023/05/28 02:18:59;;;;;;;9.45;3.88;;;;;;;19.44;38.46;101912.66;16102976;19;131190;-44
2023/05/28 02:24:21;;;;;;;10.48;4.30;;;;;;;19.43;38.58;101903.47;16112350;19;129831;-46
2023/05/28 02:29:43;;;;;;;9.95;4.43;;;;;;;19.42;38.21;101901.75;16102853;19;129447;-47
2023/05/28 02:35:05;;;;;;;8.00;4.18;;;;;;;19.42;38.66;101898.97;16110069;19;130468;-44
2023/05/28 02:40:27;;;;;;;9.02;4.15;;;;;;;19.40;38.44;101894.75;16110710;19;130525;-44
2023/05/28 02:45:49;;;;;;;8.05;4.10;;;;;;;19.40;38.60;101894.75;16119411;19;130019;-46
2023/05/28 02:51:12;;;;;;;10.05;4.43;;;;;;;19.41;38.41;101893.66;16124040;19;130732;-44
2023/05/28 02:56:34;;;;;;;9.23;4.43;;;;;;;19.40;38.67;101894.75;16122621;19;129852;-46
2023/05/28 03:01:56;;;;;;;7.63;4.38;;;;;;;19.39;38.61;101896.66;16118767;19;131038;-46
2023/05/28 03:07:17;;;;;;;7.88;3.80;;;;;;;19.38;38.28;101900.53;16122432;19;130836;-44
2023/05/28 03:12:39;;;;;;;9.68;4.07;;;;;;;19.37;38.38;101899.66;16119375;19;131363;-44
2023/05/28 03:18:01;;;;;;;10.50;4.57;;;;;;;19.37;38.72;101908.00;16120285;19;130307;-46
2023/05/28 03:23:24;;;;;;;11.68;4.40;;;;;;;19.36;38.29;101916.56;16121988;19;129279;-47
2023/05/28 03:28:45;;;;;;;8.63;4.47;;;;;;;19.34;38.75;101916.75;16120103;19;132041;-43
2023/05/28 03:34:07;;;;;;;6.03;3.80;;;;;;;19.34;38.77;101908.44;16122150;19;130662;-47
2023/05/28 03:39:29;;;;;;;8.20;4.47;;;;;;;19.34;38.82;101907.59;16122097;19;133059;-48
2023/05/28 03:44:51;;;;;;;7.30;4.32;;;;;;;19.33;38.55;101901.19;16122037;19;130617;-50
2023/05/28 03:50:13;;;;;;;9.85;4.53;;;;;;;19.34;38.58;101908.44;16115378;19;130584;-51
2023/05/28 03:55:38;;;;;;;5.35;3.53;;;;;;;19.33;38.56;101922.56;16121253;19;129838;-47
2023/05/28 04:01:00;;;;;;;11.70;4.40;;;;;;;19.30;38.47;101929.41;16118257;19;130943;-45
2023/05/28 04:06:23;;;;;;;8.05;3.80;;;;;;;19.31;38.33;101922.78;16117477;19;130247;-48
2023/05/28 04:11:45;;;;;;;6.03;3.53;;;;;;;19.30;38.68;101923.88;16115834;19;130239;-48
2023/05/28 04:17:12;;;;;;;7.43;3.80;;;;;;;19.29;38.42;101924.94;16122525;19;130468;-45
2023/05/28 04:22:34;;;;;;;8.95;3.85;;;;;;;19.29;38.89;101927.72;16116263;19;132145;-46
2023/05/28 04:27:56;;;;;;;9.20;4.00;;;;;;;19.29;38.58;101932.41;16119700;19;131929;-49
2023/05/28 04:33:20;;;;;;;6.47;3.80;;;;;;;19.27;38.92;101932.63;16118960;19;129594;-45
2023/05/28 04:38:42;;;;;;;9.00;4.82;;;;;;;19.27;38.80;101937.31;16117707;19;130173;-49
2023/05/28 04:44:04;;;;;;;7.03;4.13;;;;;;;19.26;38.41;101939.25;16116414;19;131678;-47
2023/05/28 04:49:26;;;;;;;9.10;4.05;;;;;;;19.24;38.81;101952.50;16116747;19;129478;-48
2023/05/28 04:54:48;;;;;;;7.53;4.10;;;;;;;19.25;38.89;101954.19;16114247;19;130454;-45
2023/05/28 05:00:14;;;;;;;8.82;4.20;;;;;;;19.25;38.71;101953.38;16113766;19;135272;-48
2023/05/28 05:05:35;;;;;;;8.30;4.20;;;;;;;19.24;38.81;101946.94;16110800;19;130956;-46
2023/05/28 05:10:58;;;;;;;10.20;4.30;;;;;;;19.24;38.74;101955.28;16109558;19;130317;-48
2023/05/28 05:16:20;;;;;;;7.53;3.92;;;;;;;19.23;38.43;101945.25;16113427;19;131748;-45
2023/05/28 05:21:42;;;;;;;8.45;4.25;;;;;;;19.24;38.72;101952.50;16114011;19;130131;-48
2023/05/28 05:27:04;;;;;;;7.75;3.83;;;;;;;19.24;38.45;101946.94;16113107;19;131496;-47
2023/05/28 05:32:26;;;;;;;6.93;3.70;;;;;;;19.23;38.42;101945.25;16118206;19;130219;-46
2023/05/28 05:37:48;;;;;;;8.30;4.10;;;;;;;19.24;38.75;101946.94;16114778;19;131242;-44
2023/05/28 05:43:10;;;;;;;6.05;3.55;;;;;;;19.23;38.72;101948.03;16117010;19;129957;-45
2023/05/28 05:48:33;;;;;;;7.47;3.72;;;;;;;19.22;38.84;101952.72;16111843;19;130869;-45
2023/05/28 05:53:55;;;;;;;8.13;3.92;;;;;;;19.23;38.49;101961.88;16112506;19;130282;-48
2023/05/28 05:59:16;;;;;;;8.57;4.45;;;;;;;19.24;38.89;101963.59;16112375;19;131250;-46
2023/05/28 06:04:38;;;;;;;9.52;4.40;;;;;;;19.24;38.90;101963.59;16111189;19;130049;-45
2023/05/28 06:10:01;;;;;;;6.72;4.03;;;;;;;19.24;38.60;101962.75;16112854;19;131034;-44
2023/05/28 06:15:24;;;;;;;11.80;4.10;;;;;;;19.24;38.67;101963.59;16113477;19;129520;-48
2023/05/28 06:20:46;;;;;;;8.25;3.90;;;;;;;19.24;38.81;101966.38;16108815;19;131430;-48
2023/05/28 06:26:08;;;;;;;6.28;3.58;;;;;;;19.24;38.49;101960.81;16111074;19;131420;-49
2023/05/28 06:31:30;;;;;;;9.70;4.50;;;;;;;19.24;38.47;101963.59;16112759;19;130564;-46
2023/05/28 06:36:52;;;;;;;7.35;3.60;;;;;;;19.24;38.74;101962.75;16110851;19;129779;-47
2023/05/28 06:42:14;;;;;;;8.85;4.13;;;;;;;19.23;38.80;101950.78;16107315;19;129959;-46
2023/05/28 06:47:36;;;;;;;11.48;4.10;;;;;;;19.24;38.51;101959.97;16110989;19;129645;-49
2023/05/28 06:52:58;;;;;;;7.75;3.67;;;;;;;19.34;38.61;101960.31;16107116;19;129302;-43
2023/05/28 06:58:20;;;;;;;10.77;4.40;;;;;;;19.48;39.15;101963.81;16105626;19;131705;-43
2023/05/28 07:03:42;;;;;;;7.88;3.63;;;;;;;19.67;39.35;101962.81;16108136;19;132267;-45
2023/05/28 07:09:04;;;;;;;7.45;3.53;;;;;;;19.85;39.28;101972.22;16105403;19;129750;-44
2023/05/28 07:14:26;;;;;;;6.80;2.97;;;;;;;20.00;38.98;101966.34;16105792;19;131360;-42
2023/05/28 07:19:48;;;;;;;10.27;3.42;;;;;;;20.11;39.06;101979.47;16112096;19;129717;-46
2023/05/28 07:25:11;;;;;;;7.75;3.42;;;;;;;20.22;38.80;101972.28;16107678;19;130666;-44
2023/05/28 07:30:33;;;;;;;7.78;3.45;;;;;;;20.33;38.87;101975.38;16121734;19;130240;-43
2023/05/28 07:35:55;;;;;;;9.13;3.60;;;;;;;20.39;38.68;101972.50;16122576;19;130206;-42
2023/05/28 07:41:17;;;;;;;11.20;3.97;;;;;;;20.47;38.80;101976.91;16118941;19;131457;-47
2023/05/28 07:46:38;;;;;;;13.75;3.50;;;;;;;20.53;38.70;101966.78;16121108;19;130219;-45
2023/05/28 07:52:01;;;;;;;13.40;4.60;;;;;;;20.58;38.99;101978.91;16120481;19;130562;-46
2023/05/28 07:57:22;;;;;;;15.55;4.75;;;;;;;20.64;38.74;101974.31;16121089;19;131324;-45
2023/05/28 08:02:45;;;;;;;9.63;4.38;;;;;;;20.68;38.90;101969.13;16119265;19;131383;-46
2023/05/28 08:08:10;;;;;;;;;;;;;;;20.69;38.44;101970.84;16123171;19;131290;-45
2023/05/28 08:13:32;;;;;;;13.43;4.18;;;;;;;20.74;38.65;101971.00;16120148;19;129782;-47
2023/05/28 08:18:54;;;;;;;18.63;9.10;;;;;;;20.78;38.88;101963.91;16119626;19;130315;-47
2023/05/28 08:24:17;;;;;;;66.50;35.03;;;;;;;20.89;38.79;101956.69;16117631;19;129562;-44
2023/05/28 08:29:39;;;;;;;71.10;39.25;;;;;;;20.98;38.82;101948.84;16119223;19;129576;-45
2023/05/28 08:35:00;;;;;;;70.38;35.45;;;;;;;21.04;39.07;101940.41;16120441;19;130011;-44
2023/05/28 08:40:23;;;;;;;52.72;27.95;;;;;;;21.12;38.75;101950.34;16115296;19;129778;-45
2023/05/28 08:45:45;;;;;;;53.33;26.88;;;;;;;21.15;38.81;101935.97;16117960;19;132002;-48
2023/05/28 08:51:08;;;;;;;51.58;23.75;;;;;;;21.20;39.04;101936.06;16118396;19;129956;-43
2023/05/28 08:56:30;;;;;;;52.53;22.98;;;;;;;21.25;39.03;101942.88;16118988;19;130975;-44
2023/05/28 09:01:52;;;;;;;46.35;21.13;;;;;;;21.28;38.86;101931.28;16117659;19;129615;-48
2023/05/28 09:07:14;;;;;;;40.63;19.15;;;;;;;21.30;38.90;101926.28;16113843;19;129873;-45
2023/05/28 09:12:41;;;;;;;38.75;17.85;;;;;;;21.33;39.10;101917.47;16114750;19;128980;-46
2023/05/28 09:18:06;;;;;;;44.45;17.27;;;;;;;21.36;38.62;101916.97;16107939;19;130024;-44
2023/05/28 09:23:28;;;;;;;59.40;27.63;;;;;;;21.36;39.14;101922.56;16115165;19;130201;-46
2023/05/28 09:28:52;;;;;;;66.65;29.85;;;;;;;21.35;38.87;101915.28;16114074;19;132970;-42
2023/05/28 09:34:14;;;;;;;62.72;26.48;;;;;;;21.34;38.97;101919.16;16115557;19;131803;-44
2023/05/28 09:39:37;;;;;;;51.85;22.05;;;;;;;21.34;38.72;101920.03;16113557;19;130127;-45
2023/05/28 09:45:00;;;;;;;51.65;21.08;;;;;;;21.34;38.61;101920.03;16113098;19;129762;-50
2023/05/28 09:50:22;;;;;;;43.17;18.83;;;;;;;21.31;38.75;101917.72;16110130;19;130246;-48
2023/05/28 09:55:44;;;;;;;38.47;16.33;;;;;;;21.29;38.60;101917.09;16110284;19;129516;-50
2023/05/28 10:01:13;;;;;;;30.17;13.48;;;;;;;21.27;38.94;101912.88;16113060;19;129913;-47
2023/05/28 10:06:38;;;;;;;29.52;11.35;;;;;;;21.19;38.89;101912.13;16113192;19;129422;-48
2023/05/28 10:12:08;;;;;;;37.57;10.80;;;;;;;21.16;39.38;101914.53;16111682;19;131432;-47
2023/05/28 10:17:30;;;;;;;30.80;9.55;;;;;;;21.13;39.54;101921.44;16110390;19;133874;-46
2023/05/28 10:22:53;;;;;;;25.48;9.02;;;;;;;21.11;39.31;101920.81;16110418;19;130286;-48
2023/05/28 10:28:15;;;;;;;20.75;8.88;;;;;;;21.12;39.56;101918.88;16110488;19;129596;-45
2023/05/28 10:33:40;;;;;;;18.38;8.60;;;;;;;21.08;40.01;101912.13;16109751;19;130879;-47
2023/05/28 10:39:03;;;;;;;23.33;8.13;;;;;;;21.07;39.99;101916.81;16108710;19;131383;-48
2023/05/28 10:44:46;;;;;;;22.15;7.65;;;;;;;21.09;40.15;101906.31;16112452;19;130118;-48
2023/05/28 10:50:14;;;;;;;15.07;6.47;;;;;;;21.10;40.56;101913.56;16106731;19;132755;-43
2023/05/28 10:55:53;;;;;;;18.17;6.22;;;;;;;21.09;40.83;101917.44;16110831;19;129491;-44
2023/05/28 11:01:16;;;;;;;17.50;6.70;;;;;;;21.10;40.91;101908.00;16109747;19;129307;-44
2023/05/28 11:06:40;;;;;;;14.88;6.20;;;;;;;21.11;40.99;101912.47;16126027;19;130796;-45
2023/05/28 11:12:02;;;;;;;15.98;6.10;;;;;;;21.11;40.96;101906.91;16124237;19;131080;-45
2023/05/28 11:17:24;;;;;;;22.50;6.60;;;;;;;21.12;41.02;101903.03;16122197;19;131012;-45
2023/05/28 11:22:46;;;;;;;11.40;5.70;;;;;;;21.10;41.00;101893.25;16122091;19;130332;-44
2023/05/28 11:28:08;;;;;;;17.23;6.18;;;;;;;21.06;40.71;101895.66;16125191;19;129840;-46
2023/05/28 11:33:30;;;;;;;15.23;6.22;;;;;;;21.07;40.76;101902.91;16124302;19;130926;-46
2023/05/28 11:39:03;;;;;;;17.77;5.38;;;;;;;21.12;40.80;101900.25;16124190;19;131204;-47
2023/05/28 11:44:25;;;;;;;12.82;5.50;;;;;;;21.12;40.55;101903.03;16120151;19;128942;-47
2023/05/28 11:49:47;;;;;;;15.38;5.07;;;;;;;21.12;40.42;101894.69;16119956;19;129822;-43
2023/05/28 11:55:10;;;;;;;12.75;5.18;;;;;;;21.12;40.41;101893.84;16119623;19;129827;-46
2023/05/28 12:00:36;;;;;;;12.93;5.13;;;;;;;21.12;40.56;101896.63;16116056;19;130678;-45
2023/05/28 12:05:58;;;;;;;10.80;4.40;;;;;;;21.12;40.48;101900.25;16114537;19;130624;-48
2023/05/28 12:11:26;;;;;;;12.25;4.93;;;;;;;21.15;40.33;101899.78;16113669;19;129601;-46
2023/05/28 12:16:47;;;;;;;15.43;5.18;;;;;;;21.15;40.18;101877.53;16111890;19;130695;-45
2023/05/28 12:22:15;;;;;;;8.85;4.20;;;;;;;21.14;39.92;101888.88;16115966;19;132545;-45
2023/05/28 12:27:37;;;;;;;13.38;4.60;;;;;;;21.12;39.73;101872.44;16117054;19;130720;-42
2023/05/28 12:32:59;;;;;;;11.57;4.28;;;;;;;21.11;39.72;101870.75;16111767;19;130914;-43
2023/05/28 12:38:22;;;;;;;11.90;4.45;;;;;;;21.12;39.84;101861.31;16115551;19;130986;-43
2023/05/28 12:43:44;;;;;;;11.65;4.47;;;;;;;21.10;39.65;101863.47;16113688;19;129582;-45
2023/05/28 12:49:06;;;;;;;14.73;4.32;;;;;;;21.06;39.67;101865.03;16111077;19;130117;-43
2023/05/28 12:54:28;;;;;;;9.57;4.13;;;;;;;21.09;39.77;101872.09;16113137;19;131534;-44
2023/05/28 12:59:50;;;;;;;10.18;4.18;;;;;;;21.11;39.55;101862.41;16110247;19;130249;-45
2023/05/28 13:05:12;;;;;;;11.90;4.22;;;;;;;21.12;39.41;101866.88;16109796;19;130236;-46
2023/05/28 13:10:34;;;;;;;12.23;4.40;;;;;;;21.09;39.29;101860.94;16113352;19;131343;-46
2023/05/28 13:15:56;;;;;;;15.10;3.92;;;;;;;21.07;38.73;101861.16;16104651;19;130995;-48
2023/05/28 13:21:17;;;;;;;11.48;4.22;;;;;;;21.05;38.59;101860.56;16109138;19;131773;-45
2023/05/28 13:26:39;;;;;;;17.90;4.60;;;;;;;21.06;39.14;101862.25;16110746;19;129757;-46
2023/05/28 13:32:01;;;;;;;13.77;3.85;;;;;;;21.07;39.05;101855.59;16113676;19;130255;-46
2023/05/28 13:37:23;;;;;;;8.85;3.90;;;;;;;21.06;38.65;101862.25;16112064;19;128861;-47
2023/05/28 13:42:48;;;;;;;10.35;3.80;;;;;;;21.02;38.43;101856.34;16101509;19;133281;-48
2023/05/28 13:48:10;;;;;;;11.77;4.28;;;;;;;21.03;38.59;101858.03;16116722;19;130965;-47
2023/05/28 13:53:34;;;;;;;10.25;3.60;;;;;;;21.06;38.47;101851.13;16114186;19;131877;-48
2023/05/28 13:58:56;;;;;;;7.60;3.53;;;;;;;21.08;38.63;101854.53;16114509;19;131851;-45
2023/05/28 14:04:17;;;;;;;9.93;3.63;;;;;;;21.11;38.69;101851.25;16116223;19;129991;-43
2023/05/28 14:09:39;;;;;;;8.55;3.58;;;;;;;21.13;37.94;101840.75;16113776;19;130419;-47
2023/05/28 14:15:02;;;;;;;7.07;3.83;;;;;;;21.16;38.45;101833.84;16115339;19;129567;-46
2023/05/28 14:20:23;;;;;;;9.02;3.38;;;;;;;21.16;38.34;101851.41;16112537;19;131024;-48
2023/05/28 14:25:45;;;;;;;10.15;3.70;;;;;;;21.17;38.07;101835.53;16111819;19;132648;-48
2023/05/28 14:31:07;;;;;;;6.90;3.05;;;;;;;21.16;38.29;101834.72;16114523;19;129000;-44
2023/05/28 14:36:29;;;;;;;6.20;3.03;;;;;;;21.16;37.86;101836.63;16118246;19;128953;-47
2023/05/28 14:41:51;;;;;;;10.27;3.08;;;;;;;21.16;37.92;101834.72;16127073;19;129949;-43
2023/05/28 14:47:13;;;;;;;8.27;3.58;;;;;;;21.16;37.52;101840.28;16127528;19;130384;-44
2023/05/28 14:52:35;;;;;;;6.68;3.38;;;;;;;21.14;37.39;101836.88;16128150;19;129740;-46
2023/05/28 14:57:57;;;;;;;9.60;3.45;;;;;;;21.15;37.49;101830.22;16121925;19;130900;-45
2023/05/28 15:03:19;;;;;;;5.70;3.33;;;;;;;21.17;37.68;101836.38;16123809;19;131779;-47
2023/05/28 15:08:41;;;;;;;6.43;3.40;;;;;;;21.17;37.24;101830.81;16124796;19;129747;-44
2023/05/28 15:14:03;;;;;;;5.47;2.90;;;;;;;21.18;37.32;101826.09;16125312;19;129137;-45
2023/05/28 15:19:25;;;;;;;10.77;3.00;;;;;;;21.17;37.55;101816.91;16126324;19;131350;-47
2023/05/28 15:24:48;;;;;;;7.30;3.22;;;;;;;21.17;37.75;101819.69;16127566;19;129634;-44
2023/05/28 15:30:10;;;;;;;9.30;3.45;;;;;;;21.17;37.09;101816.06;16125003;19;130339;-43
2023/05/28 15:35:33;;;;;;;4.40;3.08;;;;;;;21.17;37.17;101827.19;16126136;19;129914;-49
2023/05/28 15:40:56;;;;;;;6.20;3.00;;;;;;;21.17;36.88;101813.28;16124879;19;129126;-42
2023/05/28 15:46:18;;;;;;;4.55;3.08;;;;;;;21.17;36.98;101822.47;16124984;19;129828;-48
2023/05/28 15:51:40;;;;;;;5.88;3.25;;;;;;;21.17;37.16;101810.50;16124154;19;129176;-46
2023/05/28 15:57:03;;;;;;;7.78;3.10;;;;;;;21.18;37.24;101806.63;16119694;19;129623;-48
2023/05/28 16:02:29;;;;;;;7.05;3.30;;;;;;;21.19;37.10;101811.94;16123106;19;128981;-45
2023/05/28 16:07:51;;;;;;;4.93;2.78;;;;;;;21.20;37.09;101812.81;16118810;19;129593;-44
2023/05/28 16:13:15;;;;;;;9.10;3.30;;;;;;;21.19;36.48;101825.84;16120820;19;129585;-46
2023/05/28 16:18:37;;;;;;;6.72;3.08;;;;;;;21.18;36.40;101821.38;16120993;19;130782;-47
2023/05/28 16:24:00;;;;;;;8.00;3.25;;;;;;;21.17;36.50;101814.13;16121884;19;131111;-48
2023/05/28 16:29:23;;;;;;;9.50;3.15;;;;;;;21.19;36.30;101819.47;16120914;19;129663;-43
2023/05/28 16:34:45;;;;;;;5.30;2.85;;;;;;;21.18;36.69;101807.47;16121218;19;131099;-50
2023/05/28 16:40:08;;;;;;;6.32;3.03;;;;;;;21.20;36.39;101818.38;16119939;19;130644;-45
2023/05/28 16:45:30;;;;;;;6.85;2.97;;;;;;;21.20;36.52;101821.97;16120530;19;131964;-47
2023/05/28 16:50:53;;;;;;;5.88;2.80;;;;;;;21.20;36.41;101813.63;16120732;19;129331;-47
2023/05/28 16:56:15;;;;;;;7.05;3.00;;;;;;;21.20;36.10;101808.06;16114319;19;130327;-45
2023/05/28 17:01:37;;;;;;;6.68;2.97;;;;;;;21.21;36.60;101815.34;16114077;19;130485;-44
2023/05/28 17:06:59;;;;;;;5.13;2.95;;;;;;;21.20;36.35;101810.84;16118151;19;130880;-43
2023/05/28 17:12:21;;;;;;;6.03;2.88;;;;;;;21.21;36.03;101812.53;16116098;19;130409;-49
2023/05/28 17:17:43;;;;;;;7.25;3.08;;;;;;;21.21;36.60;101815.34;16116115;19;131212;-43
2023/05/28 17:23:08;;;;;;;7.03;2.95;;;;;;;21.22;36.05;101814.25;16115319;19;134437;-46
2023/05/28 17:28:31;;;;;;;4.85;2.83;;;;;;;21.22;36.28;101811.47;16117665;19;133017;-49
2023/05/28 17:33:53;;;;;;;6.20;2.67;;;;;;;21.24;36.53;101813.16;16116027;19;130244;-45
2023/05/28 17:39:16;;;;;;;5.80;3.13;;;;;;;21.25;36.24;101815.69;16115358;19;129868;-44
2023/05/28 17:44:38;;;;;;;7.07;2.97;;;;;;;21.25;36.45;101821.25;16115775;19;129478;-44
2023/05/28 17:50:01;;;;;;;9.48;3.00;;;;;;;21.25;35.81;101826.00;16113528;19;130110;-48
2023/05/28 17:55:23;;;;;;;7.22;2.83;;;;;;;21.25;36.12;101828.78;16115450;19;129639;-46
2023/05/28 18:00:46;;;;;;;8.48;3.10;;;;;;;21.25;36.40;101826.00;16115512;19;133473;-44
2023/05/28 18:06:09;;;;;;;7.25;3.72;;;;;;;21.22;35.89;101833.72;16113820;19;129717;-44
2023/05/28 18:11:31;;;;;;;9.68;3.90;;;;;;;21.20;35.93;101837.84;16111670;19;129474;-42
2023/05/28 18:16:54;;;;;;;10.27;3.70;;;;;;;21.19;36.00;101845.34;16111897;19;129515;-47
2023/05/28 18:22:17;;;;;;;7.15;3.33;;;;;;;21.17;36.27;101855.03;16105141;19;131162;-45
2023/05/28 18:27:39;;;;;;;12.02;3.70;;;;;;;21.13;36.32;101854.66;16112250;19;129835;-42
2023/05/28 18:33:01;;;;;;;12.25;3.90;;;;;;;21.10;36.40;101857.09;16109431;19;129508;-42
2023/05/28 18:38:23;;;;;;;13.00;4.22;;;;;;;21.09;35.95;101869.31;16107934;19;131137;-42
2023/05/28 18:43:45;;;;;;;36.25;4.90;;;;;;;21.04;36.18;101876.41;16109527;19;133818;-43
2023/05/28 18:49:07;;;;;;;16.08;3.92;;;;;;;21.03;36.33;101885.03;16103987;19;129634;-43
2023/05/28 18:54:29;;;;;;;11.18;3.70;;;;;;;21.00;36.52;101886.31;16102068;19;129963;-47
2023/05/28 18:59:54;;;;;;;14.70;4.30;;;;;;;20.99;36.56;101895.75;16102446;19;131158;-45
2023/05/28 19:05:16;;;;;;;13.73;3.70;;;;;;;20.99;36.60;101911.59;16102702;19;130617;-46
2023/05/28 19:10:38;;;;;;;11.77;3.83;;;;;;;20.99;36.97;101919.97;16100343;19;129246;-45
2023/05/28 19:16:00;;;;;;;14.32;3.78;;;;;;;21.00;36.99;101930.00;16101389;19;130184;-42
2023/05/28 19:21:23;;;;;;;24.20;3.92;;;;;;;20.98;37.15;101937.72;16108276;19;129514;-45
2023/05/28 19:26:44;;;;;;;24.77;4.20;;;;;;;20.98;37.47;101946.94;16121999;19;131736;-45
2023/05/28 19:32:07;;;;;;;14.73;3.90;;;;;;;20.96;37.55;101951.03;16125593;19;129742;-45
2023/05/28 19:37:29;;;;;;;9.20;3.90;;;;;;;20.95;37.29;101955.75;16125130;19;129183;-43
2023/05/28 19:42:52;;;;;;;18.25;4.03;;;;;;;20.94;37.94;101959.63;16121860;19;131502;-44
2023/05/28 19:48:15;;;;;;;17.20;3.75;;;;;;;20.93;37.39;101957.91;16122197;19;131653;-46
2023/05/28 19:53:37;;;;;;;11.95;3.60;;;;;;;20.90;37.59;101963.94;16120916;19;129746;-41
2023/05/28 19:58:58;;;;;;;9.32;3.42;;;;;;;20.88;37.77;101971.69;16119745;19;131029;-42
2023/05/28 20:04:21;;;;;;;12.50;3.80;;;;;;;20.86;37.85;101979.44;16122719;19;130414;-42
2023/05/28 20:09:43;;;;;;;16.35;3.58;;;;;;;20.84;38.07;101987.16;16118368;19;130367;-44
2023/05/28 20:15:05;;;;;;;18.75;3.53;;;;;;;20.82;37.85;102001.28;16116981;19;130102;-42
2023/05/28 20:20:28;;;;;;;10.23;3.25;;;;;;;20.82;37.71;102006.84;16116367;19;130113;-45
2023/05/28 20:25:53;;;;;;;12.70;3.47;;;;;;;20.80;37.65;102011.78;16118780;19;135055;-42
2023/05/28 20:31:15;;;;;;;14.53;3.77;;;;;;;20.79;38.15;102012.91;16115145;19;130537;-43
2023/05/28 20:36:37;;;;;;;9.75;3.20;;;;;;;20.78;38.12;102021.47;16115712;19;130858;-44
2023/05/28 20:41:59;;;;;;;11.35;3.20;;;;;;;20.76;37.72;102027.25;16114654;19;130159;-43
2023/05/28 20:47:21;;;;;;;17.17;3.28;;;;;;;20.74;37.76;102027.44;16115712;19;131554;-46
2023/05/28 20:52:44;;;;;;;21.73;3.47;;;;;;;20.74;38.16;102021.88;16113073;19;130956;-44
2023/05/28 20:58:06;;;;;;;13.73;3.28;;;;;;;20.72;37.77;102039.91;16112976;19;130446;-47
2023/05/28 21:03:29;;;;;;;10.05;3.53;;;;;;;20.70;37.76;102037.34;16116326;19;128861;-44
2023/05/28 21:08:51;;;;;;;10.20;3.05;;;;;;;20.68;37.76;102038.66;16115859;19;129717;-46
2023/05/28 21:14:13;;;;;;;7.68;3.33;;;;;;;20.65;38.01;102045.53;16108108;19;132044;-47
2023/05/28 21:19:35;;;;;;;9.25;3.00;;;;;;;20.63;38.02;102046.88;16113660;19;129648;-44
2023/05/28 21:24:57;;;;;;;9.45;3.30;;;;;;;20.60;37.90;102060.16;16108881;19;129906;-44
2023/05/28 21:30:18;;;;;;;12.02;3.28;;;;;;;20.59;37.87;102065.94;16107905;19;130724;-44
2023/05/28 21:35:40;;;;;;;8.38;3.15;;;;;;;20.56;38.17;102058.91;16111611;19;129508;-47
2023/05/28 21:41:02;;;;;;;6.88;2.72;;;;;;;20.55;38.20;102068.34;16110714;19;130200;-44
2023/05/28 21:46:25;;;;;;;11.02;3.47;;;;;;;20.54;37.92;102066.66;16111546;19;130152;-42
2023/05/28 21:51:49;;;;;;;8.65;2.67;;;;;;;20.53;38.15;102064.06;16107695;19;129656;-43
2023/05/28 21:57:11;;;;;;;11.82;3.30;;;;;;;20.51;37.98;102072.66;16107451;19;129859;-43
2023/05/28 22:02:32;;;;;;;7.10;2.80;;;;;;;20.50;38.20;102082.06;16110825;19;130605;-44
2023/05/28 22:07:55;;;;;;;10.73;2.90;;;;;;;20.49;38.44;102074.81;16106668;19;130660;-45
2023/05/28 22:13:19;;;;;;;9.40;2.80;;;;;;;20.48;38.42;102084.22;16109550;19;129733;-47
2023/05/28 22:18:41;;;;;;;10.30;3.35;;;;;;;20.47;38.17;102085.31;16106058;19;131262;-44
2023/05/28 22:24:04;;;;;;;8.45;3.08;;;;;;;20.45;38.24;102081.91;16106458;19;131230;-50
2023/05/28 22:29:25;;;;;;;8.48;3.35;;;;;;;20.45;38.43;102081.91;16108951;19;130566;-46
2023/05/28 22:34:47;;;;;;;9.70;3.17;;;;;;;20.44;38.17;102083.84;16105617;19;132062;-47
2023/05/28 22:40:10;;;;;;;6.88;2.75;;;;;;;20.44;38.44;102080.22;16111036;19;131717;-48
2023/05/28 22:45:32;;;;;;;7.18;2.75;;;;;;;20.42;38.42;102086.00;16109950;19;131406;-48
2023/05/28 22:50:55;;;;;;;8.13;2.85;;;;;;;20.42;37.93;102076.84;16106084;19;130150;-50
2023/05/28 22:56:16;;;;;;;8.13;2.97;;;;;;;20.41;38.08;102087.09;16107525;19;129498;-50
2023/05/28 23:01:40;;;;;;;7.05;2.55;;;;;;;20.40;38.03;102088.16;16122614;19;130367;-49
2023/05/28 23:07:02;;;;;;;5.68;2.67;;;;;;;20.38;37.97;102079.19;16121003;19;129558;-49
2023/05/28 23:12:24;;;;;;;5.63;2.78;;;;;;;20.38;37.99;102086.69;16122004;19;131029;-49
2023/05/28 23:17:48;;;;;;;7.35;2.75;;;;;;;20.38;38.23;102095.03;16121316;19;130669;-46
2023/05/28 23:23:10;;;;;;;5.63;2.63;;;;;;;20.37;37.91;102098.91;16119113;19;130473;-44
2023/05/28 23:28:34;;;;;;;8.63;2.65;;;;;;;20.36;38.42;102108.31;16122483;19;129882;-46
2023/05/28 23:33:55;;;;;;;6.22;2.65;;;;;;;20.34;38.32;102110.47;16119253;19;130392;-47
2023/05/28 23:39:19;;;;;;;8.18;2.90;;;;;;;20.33;37.95;102114.31;16115165;19;129879;-45
2023/05/28 23:44:44;;;;;;;7.53;3.08;;;;;;;20.32;37.92;102123.72;16119044;19;131557;-47
2023/05/28 23:50:07;;;;;;;6.90;2.88;;;;;;;20.31;37.92;102128.47;16119261;19;131118;-44
2023/05/28 23:55:29;;;;;;;5.88;2.55;;;;;;;20.29;38.30;102120.34;16117987;19;129159;-44
